M I D A S
Marine Information and Data Acquisition System
Tripno 1686 of the Zeeleeuw from 2009-05-04 08:00:00 to 2009-05-04 17:00:00
Back to CruiseResearch ActivitiesStationsMapUnderway DataData graphs

EquipmentUnitsComment
TimeDGPSUTC
LatitudeDGPSDM.mWGS84
LongitudeDGPSDM.mWGS84
TemperatureSBE03/SBE38deg celciusITS90
ConductivitySBE21S/mITS90
SalinitySBE21 Practical Salinity Units
ChlorophylAChelsea fluorimeterg/lCalibrated in Aceton
Missing or incorrect values are displayed as -999
Sea surface data collected by the RV Zeeleeuw from 2009-05-04 08:00:00 to 2009-05-04 17:00:00
Time Latitude Longitude Temperature Conductivity Salinity ChlorophylA
2009-05-04 13:47:13 51°11.829 2°50.585 -999 0.036341 0.174015 -1.000568
2009-05-04 13:47:13 51°11.829 2°50.585 -999 0.036135 0.173022 -1.000568
2009-05-04 13:47:13 51°11.829 2°50.585 -999 0.036135 0.173019 -0.965744
2009-05-04 13:47:13 51°11.829 2°50.585 -999 0.036135 0.173022 -0.965744
2009-05-04 13:47:13 51°11.829 2°50.585 -999 0.036135 0.173022 -1.000568
2009-05-04 13:47:13 51°11.829 2°50.585 -999 0.036135 0.173024 -0.965744
2009-05-04 13:47:13 51°11.829 2°50.585 -999 0.036238 0.173525 -1.000568
2009-05-04 13:47:13 51°11.829 2°50.585 -999 0.036033 0.172526 -0.965744
2009-05-04 13:47:13 51°11.829 2°50.585 -999 0.036135 0.173019 -1.000568
2009-05-04 13:47:14 51°12.384 2°41.022 -999 1.186991 7.421084 -1.209513
2009-05-04 13:47:19 51°12.393 2°41.041 -999 1.186991 7.421084 -1.209513
2009-05-04 13:47:24 51°12.403 2°41.061 -999 1.186991 7.421084 -1.209513
2009-05-04 13:47:29 51°12.411 2°41.081 -999 1.186991 7.421216 -1.209513
2009-05-04 13:47:34 51°12.42 2°41.101 -999 1.186991 7.421347 -1.244337
2009-05-04 13:47:38 51°12.428 2°41.117 -999 1.186991 7.421216 -1.209513
2009-05-04 13:47:44 51°12.439 2°41.14 -999 1.186991 7.421347 -1.244337
2009-05-04 13:47:49 51°12.448 2°41.16 -999 1.186991 7.421479 -1.244337
2009-05-04 13:47:54 51°12.457 2°41.18 -999 1.186991 7.421479 -1.244337
2009-05-04 13:47:59 51°12.466 2°41.199 -999 1.186991 7.421479 -1.244337
2009-05-04 13:48:04 51°12.475 2°41.219 -999 1.186991 7.421479 -1.244337
2009-05-04 13:48:09 51°12.485 2°41.238 -999 1.186991 7.421479 -1.244337
2009-05-04 13:48:14 51°12.494 2°41.258 -999 1.187094 7.422306 -1.244337
2009-05-04 13:48:19 51°12.504 2°41.277 -999 1.187094 7.422175 -1.209513
2009-05-04 13:48:24 51°12.512 2°41.297 -999 1.187094 7.422175 -1.209513
2009-05-04 13:48:29 51°12.522 2°41.317 -999 1.187094 7.422306 -1.209513
2009-05-04 13:48:34 51°12.531 2°41.337 -999 1.186991 7.421742 -1.244337
2009-05-04 13:48:39 51°12.54 2°41.356 -999 1.186991 7.421742 -1.209513
2009-05-04 13:48:45 51°12.551 2°41.38 -999 1.187094 7.422438 -1.209513
2009-05-04 13:48:49 51°12.559 2°41.395 -999 1.186991 7.421873 -1.244337
2009-05-04 13:48:54 51°12.568 2°41.415 -999 1.186991 7.421873 -1.244337
2009-05-04 13:48:59 51°12.577 2°41.435 -999 1.186991 7.421873 -1.244337
2009-05-04 13:49:04 51°12.585 2°41.456 -999 1.186991 7.422005 -1.244337
2009-05-04 13:49:09 51°12.595 2°41.475 -999 1.186991 7.422005 -1.209513
2009-05-04 13:49:14 51°12.603 2°41.496 -999 1.186991 7.422136 -1.244337
2009-05-04 13:49:19 51°12.612 2°41.516 -999 1.186888 7.42144 -1.209513
2009-05-04 13:49:25 51°12.623 2°41.54 -999 1.186888 7.42144 -1.209513
2009-05-04 13:49:30 51°12.632 2°41.56 -999 1.186991 7.422136 -1.244337
2009-05-04 13:49:34 51°12.639 2°41.577 -999 1.186991 7.422267 -1.244337
2009-05-04 13:49:39 51°12.648 2°41.597 -999 1.186991 7.422399 -1.209513
2009-05-04 13:49:44 51°12.657 2°41.617 -999 1.186991 7.422267 -1.244337
2009-05-04 13:49:49 51°12.665 2°41.637 -999 1.186991 7.422399 -1.244337
2009-05-04 13:49:54 51°12.674 2°41.657 -999 1.186991 7.422399 -1.244337
2009-05-04 13:49:59 51°12.683 2°41.678 -999 1.186991 7.42253 -1.244337
2009-05-04 13:50:04 51°12.692 2°41.698 -999 1.186991 7.42253 -1.244337
2009-05-04 13:50:10 51°12.702 2°41.722 -999 1.186991 7.422662 -1.244337
2009-05-04 13:50:14 51°12.709 2°41.739 -999 1.186888 7.422097 -1.244337
2009-05-04 13:50:19 51°12.717 2°41.759 -999 1.186888 7.422097 -1.244337
2009-05-04 13:50:24 51°12.726 2°41.78 -999 1.186888 7.422097 -1.244337
2009-05-04 13:50:29 51°12.734 2°41.801 -999 1.186888 7.422097 -1.209513
2009-05-04 13:50:34 51°12.742 2°41.822 -999 1.186888 7.422229 -1.209513
2009-05-04 13:50:38 51°12.748 2°41.838 -999 1.186888 7.42236 -1.209513
2009-05-04 13:50:44 51°12.759 2°41.863 -999 1.186888 7.422229 -1.244337
2009-05-04 13:50:49 51°12.767 2°41.884 -999 1.186888 7.42236 -1.244337
2009-05-04 13:50:54 51°12.775 2°41.904 -999 1.186888 7.42236 -1.244337
2009-05-04 13:51:00 51°12.786 2°41.929 -999 1.186785 7.421664 -1.244337
2009-05-04 13:51:04 51°12.793 2°41.945 -999 1.186888 7.42236 -1.244337
2009-05-04 13:51:09 51°12.801 2°41.966 -999 1.186888 7.422492 -1.209513
2009-05-04 13:51:14 51°12.809 2°41.986 -999 1.186785 7.421927 -1.244337
2009-05-04 13:51:19 51°12.817 2°42.007 -999 1.186888 7.422623 -1.244337
2009-05-04 13:51:24 51°12.825 2°42.028 -999 1.186888 7.422623 -1.244337
2009-05-04 13:51:29 51°12.833 2°42.05 -999 1.186785 7.421927 -1.244337
2009-05-04 13:51:34 51°12.842 2°42.07 -999 1.186785 7.421927 -1.244337
2009-05-04 13:51:38 51°12.847 2°42.087 -999 1.186785 7.422059 -1.244337
2009-05-04 13:51:45 51°12.859 2°42.117 -999 1.186785 7.421927 -1.244337
2009-05-04 13:51:49 51°12.865 2°42.134 -999 1.186785 7.422059 -1.244337
2009-05-04 13:51:54 51°12.873 2°42.155 -999 1.186785 7.422059 -1.244337
2009-05-04 13:51:59 51°12.881 2°42.176 -999 1.186785 7.422059 -1.244337
2009-05-04 13:52:04 51°12.889 2°42.197 -999 1.186785 7.422059 -1.244337
2009-05-04 13:52:09 51°12.897 2°42.218 -999 1.186682 7.421494 -1.244337
2009-05-04 13:52:14 51°12.905 2°42.239 -999 1.186682 7.421494 -1.244337
2009-05-04 13:52:19 51°12.913 2°42.26 -999 1.186785 7.422322 -1.244337
2009-05-04 13:52:24 51°12.921 2°42.281 -999 1.186785 7.422322 -1.244337
2009-05-04 13:52:29 51°12.929 2°42.303 -999 1.186682 7.421625 -1.244337
2009-05-04 13:52:34 51°12.937 2°42.324 -999 1.186785 7.422322 -1.244337
2009-05-04 13:52:40 51°12.946 2°42.349 -999 1.186682 7.421625 -1.244337
2009-05-04 13:52:44 51°12.952 2°42.366 -999 1.186682 7.421625 -1.244337
2009-05-04 13:52:49 51°12.96 2°42.388 -999 1.186682 7.421494 -1.244337
2009-05-04 13:52:54 51°12.967 2°42.409 -999 1.186682 7.421494 -1.244337
2009-05-04 13:52:59 51°12.974 2°42.431 -999 1.186682 7.421757 -1.209513
2009-05-04 13:53:04 51°12.982 2°42.452 -999 1.186682 7.421757 -1.244337
2009-05-04 13:53:09 51°12.99 2°42.473 -999 1.186682 7.421757 -1.244337
2009-05-04 13:53:14 51°12.998 2°42.494 -999 1.186682 7.421757 -1.209513
2009-05-04 13:53:20 51°13.007 2°42.519 -999 1.186682 7.421888 -1.244337
2009-05-04 13:53:24 51°13.013 2°42.536 -999 1.186682 7.421888 -1.244337
2009-05-04 13:53:29 51°13.021 2°42.558 -999 1.186682 7.42202 -1.209513
2009-05-04 13:53:34 51°13.028 2°42.579 -999 1.186578 7.421324 -1.244337
2009-05-04 13:53:39 51°13.035 2°42.6 -999 1.186682 7.42202 -1.244337
2009-05-04 13:53:45 51°13.044 2°42.626 -999 1.186578 7.421455 -1.244337
2009-05-04 13:53:49 51°13.049 2°42.644 -999 1.186682 7.422151 -1.244337
2009-05-04 13:53:54 51°13.056 2°42.665 -999 1.186682 7.422151 -1.244337
2009-05-04 13:53:59 51°13.063 2°42.687 -999 1.186682 7.422151 -1.244337
2009-05-04 13:54:04 51°13.07 2°42.709 -999 1.186578 7.421455 -1.244337
2009-05-04 13:54:09 51°13.077 2°42.73 -999 1.186578 7.421455 -1.244337
2009-05-04 13:54:14 51°13.084 2°42.752 -999 1.186578 7.421587 -1.244337
2009-05-04 13:54:19 51°13.09 2°42.774 -999 1.186578 7.421587 -1.209513
2009-05-04 13:54:24 51°13.096 2°42.797 -999 1.186578 7.421587 -1.209513
2009-05-04 13:54:29 51°13.103 2°42.819 -999 1.186578 7.421587 -1.244337
2009-05-04 13:54:34 51°13.109 2°42.841 -999 1.186578 7.421718 -1.244337
2009-05-04 13:54:39 51°13.115 2°42.864 -999 1.186578 7.42185 -1.244337
2009-05-04 13:54:44 51°13.12 2°42.887 -999 1.186578 7.42185 -1.244337
2009-05-04 13:54:49 51°13.126 2°42.909 -999 1.186578 7.42185 -1.244337
2009-05-04 13:54:54 51°13.132 2°42.932 -999 1.186578 7.42185 -1.244337
2009-05-04 13:55:00 51°13.139 2°42.959 -999 1.186578 7.42185 -1.244337
2009-05-04 13:55:04 51°13.143 2°42.977 -999 1.186578 7.421981 -1.209513
2009-05-04 13:55:09 51°13.149 2°42.999 -999 1.186475 7.421285 -1.244337
2009-05-04 13:55:14 51°13.154 2°43.022 -999 1.186578 7.421981 -1.244337
2009-05-04 13:55:19 51°13.16 2°43.044 -999 1.186475 7.421417 -1.209513
2009-05-04 13:55:24 51°13.166 2°43.067 -999 1.186475 7.421417 -1.209513
2009-05-04 13:55:29 51°13.172 2°43.089 -999 1.186475 7.421417 -1.244337
2009-05-04 13:55:34 51°13.177 2°43.112 -999 1.186475 7.421548 -1.244337
2009-05-04 13:55:40 51°13.185 2°43.138 -999 1.186475 7.421548 -1.244337
2009-05-04 13:55:45 51°13.19 2°43.161 -999 1.186475 7.42168 -1.244337
2009-05-04 13:55:49 51°13.195 2°43.178 -999 1.186475 7.42168 -1.244337
2009-05-04 13:55:54 51°13.201 2°43.201 -999 1.186475 7.42168 -1.244337
2009-05-04 13:55:59 51°13.208 2°43.222 -999 1.186475 7.421811 -1.244337
2009-05-04 13:56:05 51°13.214 2°43.249 -999 1.186475 7.421811 -1.209513
2009-05-04 13:56:09 51°13.22 2°43.267 -999 1.186475 7.421943 -1.244337
2009-05-04 13:56:14 51°13.225 2°43.289 -999 1.186475 7.421943 -1.244337
2009-05-04 13:56:19 51°13.231 2°43.311 -999 1.186475 7.422074 -1.209513
2009-05-04 13:56:25 51°13.239 2°43.337 -999 1.186475 7.422074 -1.209513
2009-05-04 13:56:29 51°13.244 2°43.355 -999 1.186372 7.421378 -1.244337
2009-05-04 13:56:34 51°13.25 2°43.377 -999 1.186475 7.422206 -1.244337
2009-05-04 13:56:40 51°13.257 2°43.403 -999 1.186372 7.421509 -1.244337
2009-05-04 13:56:44 51°13.262 2°43.42 -999 1.186372 7.421641 -1.244337
2009-05-04 13:56:49 51°13.268 2°43.442 -999 1.186372 7.421641 -1.244337
2009-05-04 13:56:54 51°13.274 2°43.464 -999 1.186372 7.421641 -1.244337
2009-05-04 13:56:59 51°13.28 2°43.486 -999 1.186372 7.421772 -1.244337
2009-05-04 13:57:04 51°13.286 2°43.508 -999 1.186372 7.421904 -1.244337
2009-05-04 13:57:09 51°13.293 2°43.529 -999 1.186372 7.421904 -1.244337
2009-05-04 13:57:14 51°13.298 2°43.551 -999 1.186372 7.422036 -1.244337
2009-05-04 13:57:20 51°13.306 2°43.577 -999 1.186372 7.422036 -1.244337
2009-05-04 13:57:24 51°13.311 2°43.594 -999 1.186372 7.422036 -1.244337
2009-05-04 13:57:29 51°13.317 2°43.615 -999 1.186372 7.422167 -1.244337
2009-05-04 13:57:34 51°13.323 2°43.637 -999 1.186372 7.422299 -1.244337
2009-05-04 13:57:39 51°13.329 2°43.659 -999 1.186269 7.421602 -1.244337
2009-05-04 13:57:45 51°13.336 2°43.685 -999 1.186372 7.42243 -1.209513
2009-05-04 13:57:49 51°13.342 2°43.701 -999 1.186269 7.421734 -1.244337
2009-05-04 13:57:54 51°13.347 2°43.723 -999 1.186269 7.421734 -1.244337
2009-05-04 13:57:59 51°13.354 2°43.744 -999 1.186372 7.42243 -1.244337
2009-05-04 13:58:05 51°13.362 2°43.77 -999 1.186372 7.422562 -1.244337
2009-05-04 13:58:09 51°13.367 2°43.787 -999 1.186269 7.421865 -1.244337
2009-05-04 13:58:14 51°13.373 2°43.809 -999 1.186269 7.421997 -1.244337
2009-05-04 13:58:19 51°13.379 2°43.83 -999 1.186269 7.422129 -1.244337
2009-05-04 13:58:25 51°13.387 2°43.856 -999 1.186269 7.422129 -1.244337
2009-05-04 13:58:29 51°13.392 2°43.873 -999 1.186269 7.422129 -1.244337
2009-05-04 13:58:34 51°13.398 2°43.895 -999 1.186269 7.42226 -1.244337
2009-05-04 13:58:39 51°13.404 2°43.917 -999 1.186269 7.42226 -1.209513
2009-05-04 13:58:44 51°13.411 2°43.938 -999 1.186269 7.422392 -1.244337
2009-05-04 13:58:49 51°13.417 2°43.96 -999 1.186269 7.422392 -1.244337
2009-05-04 13:58:54 51°13.424 2°43.981 -999 1.186269 7.422392 -1.244337
2009-05-04 13:59:00 51°13.431 2°44.007 -999 1.186269 7.422523 -1.209513
2009-05-04 13:59:04 51°13.437 2°44.024 -999 1.186269 7.422523 -1.244337
2009-05-04 13:59:09 51°13.443 2°44.046 -999 1.186269 7.422655 -1.209513
2009-05-04 13:59:14 51°13.449 2°44.067 -999 1.186269 7.422655 -1.244337
2009-05-04 13:59:19 51°13.455 2°44.089 -999 1.186269 7.422655 -1.209513
2009-05-04 13:59:24 51°13.461 2°44.111 -999 1.186269 7.422655 -1.209513
2009-05-04 13:59:29 51°13.467 2°44.133 -999 1.186269 7.422787 -1.244337
2009-05-04 13:59:34 51°13.473 2°44.155 -999 1.186166 7.422222 -1.244337
2009-05-04 13:59:40 51°13.479 2°44.182 -999 1.186269 7.422918 -1.244337
2009-05-04 13:59:45 51°13.485 2°44.204 -999 1.186166 7.422353 -1.244337
2009-05-04 13:59:49 51°13.49 2°44.222 -999 1.186166 7.422222 -1.244337
2009-05-04 13:59:54 51°13.495 2°44.244 -999 1.186166 7.422222 -1.244337
2009-05-04 13:59:59 51°13.501 2°44.266 -999 1.186166 7.422353 -1.244337
2009-05-04 14:00:05 51°13.508 2°44.292 -999 1.186166 7.422353 -1.244337
2009-05-04 14:00:09 51°13.513 2°44.31 -999 1.186166 7.422485 -1.244337
2009-05-04 14:00:14 51°13.519 2°44.332 -999 1.186166 7.422485 -1.244337
2009-05-04 14:00:19 51°13.524 2°44.354 -999 1.186166 7.422616 -1.244337
2009-05-04 14:00:25 51°13.531 2°44.381 -999 1.186166 7.422616 -1.244337
2009-05-04 14:00:29 51°13.536 2°44.399 -999 1.186166 7.422616 -1.244337
2009-05-04 14:00:34 51°13.542 2°44.421 -999 1.186166 7.422748 -1.244337
2009-05-04 14:00:39 51°13.548 2°44.443 -999 1.186166 7.42288 -1.244337
2009-05-04 14:00:45 51°13.555 2°44.47 -999 1.186063 7.422183 -1.244337
2009-05-04 14:00:49 51°13.56 2°44.487 -999 1.186063 7.422315 -1.244337
2009-05-04 14:00:54 51°13.565 2°44.51 -999 1.186063 7.422315 -1.244337
2009-05-04 14:00:59 51°13.571 2°44.532 -999 1.186063 7.422315 -1.244337
2009-05-04 14:01:05 51°13.579 2°44.558 -999 1.186063 7.422315 -1.244337
2009-05-04 14:01:09 51°13.584 2°44.575 -999 1.186166 7.423011 -1.244337
2009-05-04 14:01:14 51°13.59 2°44.597 -999 1.186063 7.422446 -1.244337
2009-05-04 14:01:20 51°13.598 2°44.623 -999 1.186166 7.423143 -1.209513
2009-05-04 14:01:24 51°13.603 2°44.64 -999 1.186166 7.423143 -1.209513
2009-05-04 14:01:29 51°13.609 2°44.662 -999 1.186166 7.423275 -1.209513
2009-05-04 14:01:34 51°13.616 2°44.684 -999 1.186063 7.42271 -1.244337
2009-05-04 14:01:39 51°13.623 2°44.705 -999 1.186063 7.42271 -1.244337
2009-05-04 14:01:45 51°13.63 2°44.731 -999 1.186063 7.422841 -1.209513
2009-05-04 14:01:49 51°13.635 2°44.748 -999 1.186063 7.422841 -1.244337
2009-05-04 14:01:54 51°13.642 2°44.77 -999 1.186063 7.422841 -1.244337
2009-05-04 14:01:59 51°13.647 2°44.792 -999 1.186063 7.423105 -1.209513
2009-05-04 14:02:05 51°13.655 2°44.818 -999 1.186063 7.423105 -1.244337
2009-05-04 14:02:09 51°13.659 2°44.836 -999 1.186063 7.423236 -1.244337
2009-05-04 14:02:14 51°13.666 2°44.858 -999 1.186063 7.423105 -1.244337
2009-05-04 14:02:19 51°13.671 2°44.881 -999 1.186063 7.423236 -1.244337
2009-05-04 14:02:25 51°13.678 2°44.907 -999 1.186063 7.423236 -1.244337
2009-05-04 14:02:29 51°13.683 2°44.925 -999 1.18596 7.422539 -1.244337
2009-05-04 14:02:34 51°13.689 2°44.947 -999 1.18596 7.422539 -1.244337
2009-05-04 14:02:39 51°13.694 2°44.97 -999 1.18596 7.422671 -1.244337
2009-05-04 14:02:45 51°13.701 2°44.996 -999 1.18596 7.422671 -1.244337
2009-05-04 14:02:49 51°13.706 2°45.014 -999 1.18596 7.422803 -1.244337
2009-05-04 14:02:54 51°13.712 2°45.036 -999 1.18596 7.422803 -1.244337
2009-05-04 14:02:59 51°13.718 2°45.059 -999 1.18596 7.422803 -1.244337
2009-05-04 14:03:05 51°13.724 2°45.085 -999 1.18596 7.422934 -1.244337
2009-05-04 14:03:09 51°13.729 2°45.103 -999 1.18596 7.422934 -1.244337
2009-05-04 14:03:14 51°13.735 2°45.125 -999 1.18596 7.422934 -1.244337
2009-05-04 14:03:19 51°13.741 2°45.147 -999 1.18596 7.422934 -1.244337
2009-05-04 14:03:25 51°13.748 2°45.174 -999 1.18596 7.422934 -1.244337
2009-05-04 14:03:29 51°13.753 2°45.192 -999 1.18596 7.423066 -1.244337
2009-05-04 14:03:34 51°13.759 2°45.213 -999 1.18596 7.423066 -1.244337
2009-05-04 14:03:39 51°13.764 2°45.236 -999 1.18596 7.423066 -1.244337
2009-05-04 14:03:44 51°13.77 2°45.258 -999 1.185857 7.422501 -1.244337
2009-05-04 14:03:50 51°13.777 2°45.284 -999 1.185857 7.422501 -1.244337
2009-05-04 14:03:54 51°13.782 2°45.302 -999 1.185857 7.422501 -1.244337
2009-05-04 14:04:00 51°13.789 2°45.328 -999 1.185857 7.422633 -1.244337
2009-05-04 14:04:04 51°13.795 2°45.345 -999 1.18596 7.423329 -1.244337
2009-05-04 14:04:09 51°13.801 2°45.367 -999 1.185857 7.422764 -1.244337
2009-05-04 14:04:14 51°13.808 2°45.388 -999 1.185857 7.422896 -1.244337
2009-05-04 14:04:20 51°13.815 2°45.414 -999 1.185857 7.422764 -1.244337
2009-05-04 14:04:24 51°13.82 2°45.431 -999 1.185857 7.422764 -1.244337
2009-05-04 14:04:29 51°13.826 2°45.453 -999 1.185857 7.423028 -1.244337
2009-05-04 14:04:34 51°13.833 2°45.475 -999 1.185857 7.423028 -1.209513
2009-05-04 14:04:39 51°13.839 2°45.496 -999 1.185857 7.423028 -1.244337
2009-05-04 14:04:45 51°13.847 2°45.522 -999 1.185857 7.423028 -1.209513
2009-05-04 14:04:49 51°13.852 2°45.539 -999 1.185754 7.422463 -1.244337
2009-05-04 14:04:54 51°13.857 2°45.561 -999 1.185754 7.422463 -1.244337
2009-05-04 14:04:59 51°13.864 2°45.583 -999 1.185857 7.423291 -1.244337
2009-05-04 14:05:05 51°13.871 2°45.61 -999 1.185754 7.422463 -1.244337
2009-05-04 14:05:09 51°13.875 2°45.627 -999 1.185754 7.422594 -1.244337
2009-05-04 14:05:14 51°13.881 2°45.649 -999 1.185754 7.422594 -1.244337
2009-05-04 14:05:19 51°13.887 2°45.672 -999 1.185754 7.422726 -1.244337
2009-05-04 14:05:25 51°13.894 2°45.698 -999 1.185754 7.422726 -1.244337
2009-05-04 14:05:30 51°13.9 2°45.72 -999 1.185754 7.422858 -1.244337
2009-05-04 14:05:34 51°13.905 2°45.738 -999 1.185651 7.422029 -1.244337
2009-05-04 14:05:38 51°13.909 2°45.756 -999 1.185754 7.422858 -1.209513
2009-05-04 14:05:45 51°13.917 2°45.786 -999 1.185754 7.422858 -1.244337
2009-05-04 14:05:49 51°13.922 2°45.804 -999 1.185754 7.422989 -1.244337
2009-05-04 14:05:54 51°13.928 2°45.826 -999 1.185754 7.422989 -1.244337
2009-05-04 14:06:00 51°13.935 2°45.853 -999 1.185754 7.423121 -1.209513
2009-05-04 14:06:04 51°13.939 2°45.871 -999 1.185651 7.422424 -1.279161
2009-05-04 14:06:09 51°13.945 2°45.893 -999 1.185754 7.423121 -1.244337
2009-05-04 14:06:14 51°13.951 2°45.915 -999 1.185651 7.422556 -1.244337
2009-05-04 14:06:19 51°13.956 2°45.937 -999 1.185754 7.423384 -1.244337
2009-05-04 14:06:24 51°13.963 2°45.959 -999 1.185754 7.423384 -1.244337
2009-05-04 14:06:29 51°13.968 2°45.981 -999 1.185651 7.422819 -1.209513
2009-05-04 14:06:34 51°13.975 2°46.003 -999 1.185651 7.422819 -1.244337
2009-05-04 14:06:39 51°13.98 2°46.025 -999 1.185651 7.422951 -1.244337
2009-05-04 14:06:45 51°13.988 2°46.051 -999 1.185651 7.422951 -1.244337
2009-05-04 14:06:49 51°13.993 2°46.069 -999 1.185651 7.423083 -1.209513
2009-05-04 14:06:54 51°13.999 2°46.09 -999 1.185651 7.423083 -1.209513
2009-05-04 14:06:59 51°14.006 2°46.112 -999 1.185651 7.423083 -1.244337
2009-05-04 14:07:05 51°14.014 2°46.138 -999 1.185651 7.423214 -1.244337
2009-05-04 14:07:09 51°14.018 2°46.155 -999 1.185548 7.422517 -1.244337
2009-05-04 14:07:14 51°14.024 2°46.177 -999 1.185548 7.422649 -1.244337
2009-05-04 14:07:19 51°14.03 2°46.199 -999 1.185651 7.423478 -1.244337
2009-05-04 14:07:25 51°14.038 2°46.225 -999 1.185651 7.423478 -1.244337
2009-05-04 14:07:29 51°14.042 2°46.243 -999 1.185548 7.422912 -1.244337
2009-05-04 14:07:34 51°14.049 2°46.264 -999 1.185548 7.422781 -1.244337
2009-05-04 14:07:38 51°14.053 2°46.282 -999 1.185548 7.423044 -1.209513
2009-05-04 14:07:44 51°14.061 2°46.307 -999 1.185548 7.423044 -1.244337
2009-05-04 14:07:49 51°14.067 2°46.329 -999 1.185548 7.423176 -1.244337
2009-05-04 14:07:54 51°14.073 2°46.351 -999 1.185548 7.423176 -1.244337
2009-05-04 14:07:59 51°14.08 2°46.372 -999 1.185548 7.423176 -1.244337
2009-05-04 14:08:04 51°14.086 2°46.394 -999 1.185548 7.423439 -1.244337
2009-05-04 14:08:10 51°14.092 2°46.42 -999 1.185548 7.423308 -1.244337
2009-05-04 14:08:14 51°14.095 2°46.438 -999 1.185548 7.423571 -1.244337
2009-05-04 14:08:19 51°14.099 2°46.461 -999 1.185444 7.422874 -1.244337
2009-05-04 14:08:24 51°14.102 2°46.484 -999 1.185444 7.422874 -1.244337
2009-05-04 14:08:30 51°14.105 2°46.511 -999 1.185548 7.423835 -1.244337
2009-05-04 14:08:34 51°14.107 2°46.53 -999 1.185548 7.423835 -1.244337
2009-05-04 14:08:39 51°14.109 2°46.554 -999 1.185444 7.423269 -1.209513
2009-05-04 14:08:45 51°14.112 2°46.581 -999 1.185444 7.423006 -1.244337
2009-05-04 14:08:49 51°14.112 2°46.6 -999 1.185548 7.423835 -1.209513
2009-05-04 14:08:54 51°14.114 2°46.623 -999 1.185548 7.423835 -1.209513
2009-05-04 14:09:00 51°14.115 2°46.651 -999 1.185548 7.423966 -1.244337
2009-05-04 14:09:04 51°14.118 2°46.67 -999 1.185857 7.425926 -1.244337
2009-05-04 14:09:09 51°14.117 2°46.693 -999 1.185857 7.426585 -1.244337
2009-05-04 14:09:14 51°14.12 2°46.716 -999 1.185857 7.426717 -1.244337
2009-05-04 14:09:19 51°14.12 2°46.74 -999 1.185857 7.427508 -1.209513
2009-05-04 14:09:24 51°14.121 2°46.763 -999 1.185857 7.427508 -1.209513
2009-05-04 14:09:30 51°14.122 2°46.792 -999 1.185857 7.427508 -1.244337
2009-05-04 14:09:34 51°14.122 2°46.81 -999 1.185857 7.427244 -1.244337
2009-05-04 14:09:40 51°14.123 2°46.838 -999 1.185754 7.425888 -1.244337
2009-05-04 14:09:45 51°14.124 2°46.862 -999 1.185754 7.425492 -1.244337
2009-05-04 14:09:49 51°14.125 2°46.881 -999 1.185754 7.425756 -1.244337
2009-05-04 14:09:54 51°14.125 2°46.904 -999 1.185754 7.425756 -1.244337
2009-05-04 14:09:59 51°14.126 2°46.927 -999 1.185754 7.426151 -1.244337
2009-05-04 14:10:04 51°14.125 2°46.951 -999 1.185651 7.426113 -1.244337
2009-05-04 14:10:10 51°14.127 2°46.979 -999 1.185651 7.426245 -1.244337
2009-05-04 14:10:14 51°14.126 2°46.998 -999 1.185651 7.426377 -1.244337
2009-05-04 14:10:18 51°14.127 2°47.017 -999 1.185548 7.426075 -1.244337
2009-05-04 14:10:24 51°14.127 2°47.046 -999 1.185548 7.426075 -1.244337
2009-05-04 14:10:29 51°14.128 2°47.069 -999 1.185548 7.426471 -1.244337
2009-05-04 14:10:34 51°14.129 2°47.093 -999 1.185548 7.426471 -1.244337
2009-05-04 14:10:39 51°14.129 2°47.117 -999 1.185548 7.426471 -1.244337
2009-05-04 14:10:44 51°14.13 2°47.141 -999 1.185548 7.426075 -1.244337
2009-05-04 14:10:49 51°14.13 2°47.164 -999 1.185445 7.42551 -1.209513
2009-05-04 14:10:54 51°14.13 2°47.188 -999 1.185445 7.42551 -1.209513
2009-05-04 14:11:00 51°14.13 2°47.217 -999 1.185445 7.42551 -1.244337
2009-05-04 14:11:04 51°14.13 2°47.236 -999 1.185445 7.425905 -1.209513
2009-05-04 14:11:10 51°14.13 2°47.265 -999 1.185445 7.425905 -1.244337
2009-05-04 14:11:14 51°14.129 2°47.284 -999 1.185445 7.426037 -1.244337
2009-05-04 14:11:20 51°14.129 2°47.313 -999 1.185445 7.425905 -1.244337
2009-05-04 14:11:24 51°14.128 2°47.332 -999 1.185445 7.425905 -1.244337
2009-05-04 14:11:29 51°14.128 2°47.356 -999 1.185341 7.425208 -1.244337
2009-05-04 14:11:34 51°14.128 2°47.38 -999 1.185341 7.425076 -1.244337
2009-05-04 14:11:40 51°14.128 2°47.409 -999 1.185445 7.425642 -1.209513
2009-05-04 14:11:45 51°14.128 2°47.433 -999 1.185341 7.424944 -1.244337
2009-05-04 14:11:49 51°14.127 2°47.453 -999 1.185341 7.425076 -1.244337
2009-05-04 14:11:54 51°14.127 2°47.477 -999 1.185341 7.425076 -1.244337
2009-05-04 14:11:59 51°14.127 2°47.501 -999 1.185341 7.425076 -1.244337
2009-05-04 14:12:05 51°14.126 2°47.529 -999 1.185238 7.424511 -1.209513
2009-05-04 14:12:09 51°14.126 2°47.549 -999 1.185341 7.425208 -1.244337
2009-05-04 14:12:14 51°14.126 2°47.573 -999 1.185238 7.424511 -1.209513
2009-05-04 14:12:18 51°14.126 2°47.592 -999 1.185238 7.424511 -1.244337
2009-05-04 14:12:25 51°14.125 2°47.626 -999 1.185238 7.424511 -1.244337
2009-05-04 14:12:29 51°14.126 2°47.645 -999 1.185238 7.424511 -1.244337
2009-05-04 14:12:34 51°14.126 2°47.669 -999 1.185238 7.424511 -1.244337
2009-05-04 14:12:39 51°14.126 2°47.693 -999 1.185238 7.424511 -1.244337
2009-05-04 14:12:44 51°14.126 2°47.717 -999 1.185135 7.423945 -1.244337
2009-05-04 14:12:50 51°14.125 2°47.746 -999 1.185238 7.424643 -1.244337
2009-05-04 14:12:54 51°14.126 2°47.765 -999 1.185238 7.424643 -1.244337
2009-05-04 14:13:00 51°14.125 2°47.794 -999 1.185135 7.423945 -1.244337
2009-05-04 14:13:04 51°14.125 2°47.813 -999 1.185238 7.424643 -1.244337
2009-05-04 14:13:09 51°14.125 2°47.837 -999 1.185135 7.424077 -1.244337
2009-05-04 14:13:14 51°14.125 2°47.861 -999 1.185135 7.423945 -1.209513
2009-05-04 14:13:19 51°14.124 2°47.885 -999 1.185135 7.424077 -1.244337
2009-05-04 14:13:24 51°14.124 2°47.909 -999 1.185135 7.424077 -1.244337
2009-05-04 14:13:30 51°14.123 2°47.938 -999 1.185135 7.424077 -1.244337
2009-05-04 14:13:34 51°14.123 2°47.957 -999 1.185135 7.424209 -1.244337
2009-05-04 14:13:40 51°14.123 2°47.985 -999 1.185032 7.423512 -1.244337
2009-05-04 14:13:45 51°14.123 2°48.009 -999 1.185032 7.423512 -1.244337
2009-05-04 14:13:49 51°14.122 2°48.028 -999 1.185032 7.423643 -1.244337
2009-05-04 14:13:54 51°14.122 2°48.052 -999 1.185032 7.423643 -1.244337
2009-05-04 14:13:59 51°14.122 2°48.076 -999 1.185032 7.423512 -1.244337
2009-05-04 14:14:04 51°14.122 2°48.1 -999 1.185032 7.423643 -1.244337
2009-05-04 14:14:10 51°14.122 2°48.129 -999 1.185032 7.423643 -1.244337
2009-05-04 14:14:14 51°14.121 2°48.148 -999 1.185032 7.423907 -1.244337
2009-05-04 14:14:18 51°14.122 2°48.167 -999 1.185032 7.423907 -1.279161
2009-05-04 14:14:25 51°14.122 2°48.2 -999 1.185032 7.423907 -1.279161
2009-05-04 14:14:29 51°14.122 2°48.219 -999 1.184929 7.423078 -1.244337
2009-05-04 14:14:34 51°14.122 2°48.243 -999 1.185032 7.424171 -1.244337
2009-05-04 14:14:39 51°14.125 2°48.266 -999 1.184929 7.42321 -1.244337
2009-05-04 14:14:44 51°14.125 2°48.29 -999 1.185032 7.424171 -1.244337
2009-05-04 14:14:50 51°14.129 2°48.318 -999 1.184929 7.423605 -1.244337
2009-05-04 14:14:54 51°14.13 2°48.336 -999 1.184929 7.423605 -1.244337
2009-05-04 14:14:58 51°14.133 2°48.355 -999 1.184929 7.423473 -1.244337
2009-05-04 14:15:04 51°14.135 2°48.383 -999 1.184929 7.423737 -1.244337
2009-05-04 14:15:09 51°14.138 2°48.406 -999 1.184826 7.42304 -1.209513
2009-05-04 14:15:14 51°14.141 2°48.429 -999 1.184929 7.424001 -1.244337
2009-05-04 14:15:19 51°14.144 2°48.452 -999 1.184929 7.424133 -1.244337
2009-05-04 14:15:24 51°14.146 2°48.476 -999 1.184929 7.424133 -1.244337
2009-05-04 14:15:30 51°14.149 2°48.503 -999 1.184929 7.424133 -1.244337
2009-05-04 14:15:34 51°14.152 2°48.522 -999 1.184929 7.424133 -1.244337
2009-05-04 14:15:39 51°14.155 2°48.545 -999 1.184826 7.423567 -1.244337
2009-05-04 14:15:44 51°14.158 2°48.568 -999 1.184929 7.424133 -1.244337
2009-05-04 14:15:49 51°14.161 2°48.591 -999 1.184826 7.423699 -1.244337
2009-05-04 14:15:54 51°14.163 2°48.614 -999 1.184826 7.423699 -1.244337
2009-05-04 14:16:00 51°14.167 2°48.642 -999 1.184826 7.423567 -1.244337
2009-05-04 14:16:04 51°14.169 2°48.66 -999 1.184826 7.423699 -1.209513
2009-05-04 14:16:09 51°14.173 2°48.683 -999 1.184826 7.423567 -1.244337
2009-05-04 14:16:14 51°14.175 2°48.706 -999 1.184826 7.423699 -1.244337
2009-05-04 14:16:19 51°14.178 2°48.729 -999 1.184826 7.423963 -1.244337
2009-05-04 14:16:25 51°14.181 2°48.757 -999 1.184826 7.423963 -1.244337
2009-05-04 14:16:29 51°14.184 2°48.776 -999 1.184826 7.423963 -1.244337
2009-05-04 14:16:34 51°14.187 2°48.799 -999 1.184826 7.423963 -1.244337
2009-05-04 14:16:39 51°14.189 2°48.822 -999 1.184826 7.423963 -1.244337
2009-05-04 14:16:45 51°14.193 2°48.85 -999 1.184826 7.423963 -1.244337
2009-05-04 14:16:49 51°14.195 2°48.868 -999 1.184723 7.423529 -1.244337
2009-05-04 14:16:54 51°14.197 2°48.892 -999 1.184723 7.423529 -1.244337
2009-05-04 14:16:59 51°14.201 2°48.915 -999 1.184826 7.424095 -1.244337
2009-05-04 14:17:05 51°14.204 2°48.943 -999 1.184723 7.423529 -1.209513
2009-05-04 14:17:10 51°14.208 2°48.966 -999 1.184723 7.423397 -1.244337
2009-05-04 14:17:14 51°14.209 2°48.984 -999 1.184723 7.423793 -1.209513
2009-05-04 14:17:18 51°14.212 2°49.003 -999 1.184723 7.423661 -1.244337
2009-05-04 14:17:24 51°14.215 2°49.031 -999 1.184723 7.423661 -1.244337
2009-05-04 14:17:30 51°14.219 2°49.059 -999 1.184723 7.423925 -1.244337
2009-05-04 14:17:34 51°14.221 2°49.077 -999 1.18462 7.423227 -1.244337
2009-05-04 14:17:40 51°14.224 2°49.105 -999 1.184723 7.424056 -1.244337
2009-05-04 14:17:44 51°14.227 2°49.124 -999 1.18462 7.423359 -1.244337
2009-05-04 14:17:49 51°14.229 2°49.147 -999 1.18462 7.423359 -1.244337
2009-05-04 14:17:54 51°14.232 2°49.17 -999 1.18462 7.423359 -1.244337
2009-05-04 14:17:59 51°14.234 2°49.194 -999 1.18462 7.423359 -1.244337
2009-05-04 14:18:04 51°14.236 2°49.217 -999 1.18462 7.423491 -1.244337
2009-05-04 14:18:09 51°14.239 2°49.24 -999 1.18462 7.423491 -1.244337
2009-05-04 14:18:14 51°14.242 2°49.263 -999 1.18462 7.423491 -1.244337
2009-05-04 14:18:20 51°14.245 2°49.29 -999 1.18462 7.423623 -1.244337
2009-05-04 14:18:24 51°14.247 2°49.309 -999 1.18462 7.423623 -1.244337
2009-05-04 14:18:29 51°14.25 2°49.332 -999 1.18462 7.423755 -1.244337
2009-05-04 14:18:34 51°14.253 2°49.355 -999 1.18462 7.423755 -1.244337
2009-05-04 14:18:39 51°14.256 2°49.378 -999 1.18462 7.423886 -1.244337
2009-05-04 14:18:45 51°14.259 2°49.406 -999 1.18462 7.423886 -1.244337
2009-05-04 14:18:49 51°14.262 2°49.424 -999 1.18462 7.423886 -1.244337
2009-05-04 14:18:54 51°14.265 2°49.447 -999 1.18462 7.423886 -1.244337
2009-05-04 14:18:59 51°14.267 2°49.47 -999 1.184517 7.423453 -1.209513
2009-05-04 14:19:05 51°14.271 2°49.498 -999 1.184517 7.423321 -1.244337
2009-05-04 14:19:10 51°14.273 2°49.521 -999 1.184517 7.423453 -1.244337
2009-05-04 14:19:14 51°14.275 2°49.539 -999 1.18462 7.42415 -1.244337
2009-05-04 14:19:18 51°14.277 2°49.558 -999 1.184517 7.423584 -1.244337
2009-05-04 14:19:25 51°14.28 2°49.59 -999 1.184517 7.423584 -1.244337
2009-05-04 14:19:29 51°14.283 2°49.608 -999 1.184517 7.423584 -1.244337
2009-05-04 14:19:34 51°14.285 2°49.632 -999 1.184517 7.423716 -1.244337
2009-05-04 14:19:39 51°14.287 2°49.655 -999 1.184517 7.423716 -1.244337
2009-05-04 14:19:44 51°14.29 2°49.678 -999 1.184517 7.423848 -1.244337
2009-05-04 14:19:50 51°14.294 2°49.705 -999 1.184517 7.423716 -1.244337
2009-05-04 14:19:54 51°14.296 2°49.724 -999 1.184517 7.423716 -1.244337
2009-05-04 14:20:00 51°14.299 2°49.751 -999 1.184517 7.42398 -1.279161
2009-05-04 14:20:04 51°14.301 2°49.77 -999 1.184414 7.423151 -1.244337
2009-05-04 14:20:10 51°14.304 2°49.798 -999 1.184414 7.423414 -1.244337
2009-05-04 14:20:14 51°14.306 2°49.816 -999 1.184414 7.423283 -1.244337
2009-05-04 14:20:20 51°14.309 2°49.844 -999 1.184414 7.423414 -1.244337
2009-05-04 14:20:24 51°14.312 2°49.862 -999 1.184414 7.423414 -1.244337
2009-05-04 14:20:29 51°14.314 2°49.886 -999 1.184414 7.423414 -1.244337
2009-05-04 14:20:34 51°14.316 2°49.909 -999 1.184414 7.423546 -1.244337
2009-05-04 14:20:39 51°14.319 2°49.932 -999 1.184414 7.423414 -1.244337
2009-05-04 14:20:45 51°14.322 2°49.96 -999 1.184414 7.423546 -1.244337
2009-05-04 14:20:50 51°14.325 2°49.983 -999 1.18431 7.422981 -1.209513
2009-05-04 14:20:54 51°14.326 2°50.002 -999 1.18431 7.422981 -1.209513
2009-05-04 14:21:00 51°14.33 2°50.029 -999 1.184414 7.423546 -1.244337
2009-05-04 14:21:05 51°14.332 2°50.053 -999 1.184414 7.42381 -1.244337
2009-05-04 14:21:09 51°14.334 2°50.071 -999 1.18431 7.423112 -1.244337
2009-05-04 14:21:14 51°14.337 2°50.094 -999 1.184414 7.423678 -1.244337
2009-05-04 14:21:18 51°14.34 2°50.113 -999 1.18431 7.423376 -1.244337
2009-05-04 14:21:25 51°14.344 2°50.145 -999 1.18431 7.423376 -1.244337
2009-05-04 14:21:29 51°14.346 2°50.163 -999 1.18431 7.423244 -1.244337
2009-05-04 14:21:34 51°14.349 2°50.186 -999 1.18431 7.423376 -1.244337
2009-05-04 14:21:39 51°14.352 2°50.21 -999 1.18431 7.423376 -1.244337
2009-05-04 14:21:45 51°14.355 2°50.237 -999 1.18431 7.423376 -1.244337
2009-05-04 14:21:50 51°14.358 2°50.26 -999 1.18431 7.423376 -1.244337
2009-05-04 14:21:54 51°14.36 2°50.279 -999 1.18431 7.423376 -1.244337
2009-05-04 14:22:00 51°14.363 2°50.307 -999 1.184207 7.422679 -1.244337
2009-05-04 14:22:04 51°14.364 2°50.325 -999 1.18431 7.423508 -1.209513
2009-05-04 14:22:09 51°14.367 2°50.349 -999 1.184207 7.42281 -1.244337
2009-05-04 14:22:14 51°14.368 2°50.372 -999 1.18431 7.42364 -1.244337
2009-05-04 14:22:19 51°14.371 2°50.395 -999 1.184207 7.422942 -1.244337
2009-05-04 14:22:24 51°14.373 2°50.419 -999 1.184207 7.422942 -1.244337
2009-05-04 14:22:29 51°14.376 2°50.442 -999 1.184207 7.422942 -1.244337
2009-05-04 14:22:34 51°14.378 2°50.465 -999 1.184207 7.423074 -1.244337
2009-05-04 14:22:39 51°14.381 2°50.488 -999 1.184207 7.422942 -1.244337
2009-05-04 14:22:45 51°14.383 2°50.516 -999 1.184207 7.423074 -1.244337
2009-05-04 14:22:49 51°14.385 2°50.535 -999 1.184207 7.423206 -1.279161
2009-05-04 14:22:54 51°14.388 2°50.558 -999 1.184207 7.423206 -1.279161
2009-05-04 14:22:59 51°14.391 2°50.581 -999 1.184207 7.423206 -1.244337
2009-05-04 14:23:04 51°14.393 2°50.604 -999 1.184104 7.42264 -1.244337
2009-05-04 14:23:10 51°14.396 2°50.632 -999 1.184104 7.42264 -1.244337
2009-05-04 14:23:14 51°14.398 2°50.651 -999 1.184207 7.423338 -1.244337
2009-05-04 14:23:20 51°14.401 2°50.678 -999 1.184104 7.422772 -1.244337
2009-05-04 14:23:25 51°14.404 2°50.702 -999 1.184104 7.422772 -1.244337
2009-05-04 14:23:29 51°14.407 2°50.72 -999 1.184104 7.422772 -1.244337
2009-05-04 14:23:34 51°14.41 2°50.742 -999 1.184104 7.42264 -1.244337
2009-05-04 14:23:40 51°14.413 2°50.77 -999 1.184104 7.422904 -1.244337
2009-05-04 14:23:45 51°14.415 2°50.793 -999 1.18431 7.4243 -1.244337
2009-05-04 14:23:49 51°14.417 2°50.812 -999 1.18431 7.4243 -1.244337
2009-05-04 14:23:54 51°14.42 2°50.835 -999 1.18431 7.4243 -1.244337
2009-05-04 14:23:59 51°14.422 2°50.858 -999 1.18431 7.424564 -1.209513
2009-05-04 14:24:05 51°14.426 2°50.885 -999 1.18431 7.424432 -1.279161
2009-05-04 14:24:10 51°14.428 2°50.909 -999 1.18431 7.424564 -1.244337
2009-05-04 14:24:14 51°14.43 2°50.927 -999 1.184207 7.423866 -1.244337
2009-05-04 14:24:19 51°14.432 2°50.95 -999 1.18431 7.424696 -1.244337
2009-05-04 14:24:24 51°14.435 2°50.973 -999 1.18431 7.424696 -1.244337
2009-05-04 14:24:29 51°14.437 2°50.997 -999 1.184207 7.423866 -1.244337
2009-05-04 14:24:34 51°14.44 2°51.02 -999 1.184207 7.423998 -1.244337
2009-05-04 14:24:39 51°14.443 2°51.043 -999 1.184207 7.423998 -1.209513
2009-05-04 14:24:44 51°14.446 2°51.066 -999 1.184207 7.423998 -1.244337
2009-05-04 14:24:50 51°14.449 2°51.093 -999 1.184207 7.42413 -1.244337
2009-05-04 14:24:54 51°14.451 2°51.112 -999 1.184207 7.42413 -1.244337
2009-05-04 14:25:00 51°14.454 2°51.14 -999 1.184207 7.424262 -1.244337
2009-05-04 14:25:04 51°14.456 2°51.158 -999 1.184104 7.423564 -1.244337
2009-05-04 14:25:09 51°14.459 2°51.181 -999 1.184104 7.423696 -1.244337
2009-05-04 14:25:14 51°14.462 2°51.204 -999 1.184104 7.423564 -1.244337
2009-05-04 14:25:20 51°14.464 2°51.232 -999 1.184104 7.423696 -1.244337
2009-05-04 14:25:25 51°14.467 2°51.255 -999 1.184104 7.423696 -1.244337
2009-05-04 14:25:29 51°14.469 2°51.274 -999 1.184104 7.423564 -1.244337
2009-05-04 14:25:34 51°14.471 2°51.297 -999 1.184104 7.423828 -1.244337
2009-05-04 14:25:39 51°14.474 2°51.32 -999 1.184104 7.423564 -1.244337
2009-05-04 14:25:45 51°14.476 2°51.348 -999 1.184104 7.423828 -1.244337
2009-05-04 14:25:49 51°14.479 2°51.367 -999 1.184104 7.423828 -1.244337
2009-05-04 14:25:54 51°14.481 2°51.39 -999 1.184104 7.423828 -1.244337
2009-05-04 14:26:00 51°14.484 2°51.417 -999 1.184001 7.423262 -1.244337
2009-05-04 14:26:05 51°14.487 2°51.441 -999 1.184001 7.42313 -1.244337
2009-05-04 14:26:09 51°14.489 2°51.459 -999 1.184001 7.423262 -1.244337
2009-05-04 14:26:14 51°14.491 2°51.482 -999 1.184001 7.423262 0.322746
2009-05-04 14:26:19 51°14.494 2°51.506 -999 1.184001 7.423394 -0.721976
2009-05-04 14:26:24 51°14.497 2°51.529 -999 1.184001 7.423394 -0.721976
2009-05-04 14:26:30 51°14.5 2°51.557 -999 1.184001 7.423394 -0.791624
2009-05-04 14:26:34 51°14.503 2°51.575 -999 1.184001 7.423262 -0.791624
2009-05-04 14:26:40 51°14.506 2°51.603 -999 1.184001 7.423394 -0.826448
2009-05-04 14:26:45 51°14.509 2°51.626 -999 1.184001 7.423526 -0.791624
2009-05-04 14:26:49 51°14.512 2°51.644 -999 1.184001 7.423526 -0.826448
2009-05-04 14:26:54 51°14.516 2°51.667 -999 1.184001 7.423526 -0.826448
2009-05-04 14:26:59 51°14.518 2°51.69 -999 1.183898 7.422828 -0.826448
2009-05-04 14:27:04 51°14.522 2°51.713 -999 1.183898 7.422828 -0.826448
2009-05-04 14:27:10 51°14.526 2°51.741 -999 1.183898 7.42296 -0.826448
2009-05-04 14:27:14 51°14.529 2°51.759 -999 1.183898 7.42296 -0.826448
2009-05-04 14:27:20 51°14.533 2°51.787 -999 1.183898 7.42296 -0.826448
2009-05-04 14:27:25 51°14.536 2°51.81 -999 1.183898 7.42296 -0.826448
2009-05-04 14:27:29 51°14.539 2°51.828 -999 1.183898 7.423092 -0.826448
2009-05-04 14:27:34 51°14.542 2°51.851 -999 1.183898 7.423092 -0.652328
2009-05-04 14:27:40 51°14.546 2°51.879 -999 1.183898 7.42296 -0.513031
2009-05-04 14:27:45 51°14.547 2°51.902 -999 1.183795 7.422658 -0.791624
2009-05-04 14:27:49 51°14.549 2°51.921 -999 1.183898 7.423092 -0.791624
2009-05-04 14:27:54 51°14.551 2°51.944 -999 1.183898 7.423092 -0.791624
2009-05-04 14:27:59 51°14.552 2°51.968 -999 1.183898 7.423356 -0.826448
2009-05-04 14:28:05 51°14.554 2°51.996 -999 1.183795 7.422526 -0.861272
2009-05-04 14:28:09 51°14.555 2°52.014 -999 1.183898 7.423488 -0.861272
2009-05-04 14:28:14 51°14.556 2°52.038 -999 1.183795 7.422658 -0.896096
2009-05-04 14:28:19 51°14.556 2°52.062 -999 1.183898 7.423488 -0.861272
2009-05-04 14:28:25 51°14.557 2°52.089 -999 1.183898 7.423488 -0.861272
2009-05-04 14:28:30 51°14.556 2°52.113 -999 1.183795 7.42279 -0.896096
2009-05-04 14:28:34 51°14.557 2°52.132 -999 1.183795 7.422658 -0.896096
2009-05-04 14:28:39 51°14.556 2°52.156 -999 1.183795 7.422922 -0.896096
2009-05-04 14:28:45 51°14.556 2°52.185 -999 1.183795 7.42279 -0.896096
2009-05-04 14:28:50 51°14.555 2°52.209 -999 1.183795 7.423054 -0.93092
2009-05-04 14:28:54 51°14.555 2°52.228 -999 1.183795 7.423054 -0.93092
2009-05-04 14:28:59 51°14.554 2°52.251 -999 1.183795 7.422922 -0.93092
2009-05-04 14:29:05 51°14.553 2°52.28 -999 1.183795 7.423054 -0.93092
2009-05-04 14:29:10 51°14.552 2°52.304 -999 1.183795 7.422922 -0.93092
2009-05-04 14:29:14 51°14.551 2°52.323 -999 1.183795 7.423054 -0.93092
2009-05-04 14:29:19 51°14.55 2°52.347 -999 1.183795 7.423186 -0.93092
2009-05-04 14:29:24 51°14.548 2°52.371 -999 1.183795 7.423186 -0.93092
2009-05-04 14:29:30 51°14.547 2°52.4 -999 1.183795 7.422922 -0.93092
2009-05-04 14:29:34 51°14.546 2°52.419 -999 1.183795 7.423318 -0.93092
2009-05-04 14:29:40 51°14.545 2°52.448 -999 1.183692 7.422488 -0.896096
2009-05-04 14:29:45 51°14.544 2°52.472 -999 1.183795 7.42345 -0.896096
2009-05-04 14:29:49 51°14.543 2°52.491 -999 1.183692 7.422752 -0.93092
2009-05-04 14:29:54 51°14.541 2°52.515 -999 1.183692 7.422752 -0.93092
2009-05-04 14:30:00 51°14.539 2°52.543 -999 1.183692 7.422884 -0.93092
2009-05-04 14:30:05 51°14.538 2°52.567 -999 1.183692 7.423016 -0.93092
2009-05-04 14:30:09 51°14.537 2°52.587 -999 1.183692 7.423016 -0.93092
2009-05-04 14:30:14 51°14.535 2°52.611 -999 1.183692 7.423016 -0.93092
2009-05-04 14:30:19 51°14.533 2°52.635 -999 1.183795 7.423846 -0.93092
2009-05-04 14:30:25 51°14.532 2°52.664 -999 1.183795 7.423846 -0.93092
2009-05-04 14:30:29 51°14.53 2°52.683 -999 1.183692 7.423016 -0.93092
2009-05-04 14:30:34 51°14.529 2°52.708 -999 1.183795 7.423978 -0.93092
2009-05-04 14:30:39 51°14.527 2°52.732 -999 1.183692 7.423148 -0.93092
2009-05-04 14:30:45 51°14.526 2°52.761 -999 1.183692 7.42328 -0.93092
2009-05-04 14:30:50 51°14.524 2°52.785 -999 1.183795 7.42411 -0.93092
2009-05-04 14:30:54 51°14.523 2°52.804 -999 1.183795 7.42411 -0.93092
2009-05-04 14:30:59 51°14.521 2°52.828 -999 1.183692 7.423412 -0.93092
2009-05-04 14:31:04 51°14.521 2°52.852 -999 1.183692 7.423544 -0.93092
2009-05-04 14:31:10 51°14.52 2°52.881 -999 1.183692 7.42328 -0.93092
2009-05-04 14:31:14 51°14.518 2°52.901 -999 1.183692 7.423676 -0.93092
2009-05-04 14:31:19 51°14.518 2°52.925 -999 1.183692 7.423412 -0.93092
2009-05-04 14:31:24 51°14.517 2°52.949 -999 1.183692 7.423412 -0.93092
2009-05-04 14:31:30 51°14.517 2°52.978 -999 1.183795 7.424506 -0.93092
2009-05-04 14:31:34 51°14.516 2°52.998 -999 1.183692 7.423676 -0.93092
2009-05-04 14:31:40 51°14.516 2°53.026 -999 1.183692 7.423808 -0.93092
2009-05-04 14:31:45 51°14.515 2°53.051 -999 1.183589 7.423242 -0.93092
2009-05-04 14:31:49 51°14.514 2°53.07 -999 1.183692 7.423808 -0.93092
2009-05-04 14:31:54 51°14.515 2°53.094 -999 1.183692 7.423808 -0.93092
2009-05-04 14:31:59 51°14.514 2°53.118 -999 1.183589 7.423374 -0.93092
2009-05-04 14:32:04 51°14.514 2°53.142 -999 1.183589 7.423242 -0.93092
2009-05-04 14:32:09 51°14.514 2°53.166 -999 1.183589 7.423374 -0.93092
2009-05-04 14:32:14 51°14.514 2°53.19 -999 1.183589 7.423374 -0.93092
2009-05-04 14:32:19 51°14.514 2°53.214 -999 1.183589 7.423242 -0.93092
2009-05-04 14:32:25 51°14.513 2°53.242 -999 1.183589 7.423242 -0.93092
2009-05-04 14:32:30 51°14.513 2°53.266 -999 1.183589 7.423506 -0.93092
2009-05-04 14:32:34 51°14.512 2°53.286 -999 1.183486 7.422544 -0.93092
2009-05-04 14:32:38 51°14.511 2°53.305 -999 1.183589 7.423506 -0.93092
2009-05-04 14:32:45 51°14.511 2°53.338 -999 1.183589 7.423506 -0.93092
2009-05-04 14:32:49 51°14.51 2°53.357 -999 1.183692 7.424336 -0.93092
2009-05-04 14:32:54 51°14.511 2°53.381 -999 1.183692 7.424336 -0.93092
2009-05-04 14:32:59 51°14.509 2°53.405 -999 1.183589 7.423902 -0.965744
2009-05-04 14:33:04 51°14.51 2°53.43 -999 1.183692 7.424336 -0.93092
2009-05-04 14:33:09 51°14.508 2°53.454 -999 1.183589 7.424166 -0.93092
2009-05-04 14:33:14 51°14.51 2°53.479 -999 1.183589 7.423902 -0.93092
2009-05-04 14:33:20 51°14.509 2°53.509 -999 1.183589 7.424298 -0.93092
2009-05-04 14:33:24 51°14.511 2°53.529 -999 1.183589 7.424298 -0.93092
2009-05-04 14:33:30 51°14.512 2°53.559 -999 1.183589 7.424034 -0.93092
2009-05-04 14:33:34 51°14.513 2°53.579 -999 1.183589 7.424166 -0.93092
2009-05-04 14:33:40 51°14.514 2°53.608 -999 1.183486 7.4236 -0.93092
2009-05-04 14:33:44 51°14.515 2°53.628 -999 1.183589 7.42443 -0.93092
2009-05-04 14:33:49 51°14.517 2°53.652 -999 1.183486 7.423864 -0.93092
2009-05-04 14:33:54 51°14.517 2°53.676 -999 1.183486 7.423864 -0.93092
2009-05-04 14:34:00 51°14.519 2°53.705 -999 1.183589 7.424562 -0.93092
2009-05-04 14:34:04 51°14.52 2°53.724 -999 1.183589 7.424695 -0.93092
2009-05-04 14:34:09 51°14.521 2°53.748 -999 1.183589 7.424562 -0.93092
2009-05-04 14:34:14 51°14.522 2°53.772 -999 1.183589 7.424827 -0.93092
2009-05-04 14:34:20 51°14.524 2°53.801 -999 1.183589 7.424827 -0.93092
2009-05-04 14:34:24 51°14.525 2°53.82 -999 1.183589 7.424827 -0.93092
2009-05-04 14:34:29 51°14.526 2°53.844 -999 1.183589 7.424827 -0.93092
2009-05-04 14:34:34 51°14.527 2°53.869 -999 1.183589 7.424959 -0.965744
2009-05-04 14:34:39 51°14.529 2°53.893 -999 1.183486 7.424128 -0.93092
2009-05-04 14:34:45 51°14.531 2°53.922 -999 1.183589 7.424959 -0.93092
2009-05-04 14:34:49 51°14.532 2°53.941 -999 1.183486 7.42426 -0.93092
2009-05-04 14:34:54 51°14.534 2°53.965 -999 1.183486 7.42426 -0.93092
2009-05-04 14:35:00 51°14.536 2°53.994 -999 1.183486 7.424393 -0.965744
2009-05-04 14:35:05 51°14.538 2°54.019 -999 1.183486 7.424393 -0.93092
2009-05-04 14:35:09 51°14.539 2°54.038 -999 1.183486 7.424657 -0.93092
2009-05-04 14:35:14 51°14.539 2°54.063 -999 1.183486 7.424393 -0.93092
2009-05-04 14:35:19 51°14.539 2°54.087 -999 1.183486 7.424657 -0.965744
2009-05-04 14:35:24 51°14.538 2°54.112 -999 1.183486 7.424657 -0.965744
2009-05-04 14:35:30 51°14.538 2°54.14 -999 1.183486 7.424657 -0.93092
2009-05-04 14:35:34 51°14.538 2°54.159 -999 1.183486 7.424789 -0.93092
2009-05-04 14:35:39 51°14.537 2°54.183 -999 1.183486 7.424789 -0.93092
2009-05-04 14:35:45 51°14.537 2°54.212 -999 1.183486 7.424789 -0.965744
2009-05-04 14:35:49 51°14.536 2°54.231 -999 1.183383 7.42409 -0.965744
2009-05-04 14:35:54 51°14.534 2°54.254 -999 1.183383 7.42409 -0.965744
2009-05-04 14:35:59 51°14.533 2°54.278 -999 1.183486 7.424789 -0.965744
2009-05-04 14:36:04 51°14.529 2°54.301 -999 1.183383 7.424355 -0.93092
2009-05-04 14:36:10 51°14.527 2°54.33 -999 1.183486 7.425053 -0.965744
2009-05-04 14:36:14 51°14.525 2°54.349 -999 1.183486 7.425185 -0.93092
2009-05-04 14:36:20 51°14.524 2°54.378 -999 1.183383 7.424355 -0.965744
2009-05-04 14:36:25 51°14.522 2°54.402 -999 1.183383 7.424355 -0.965744
2009-05-04 14:36:29 51°14.521 2°54.421 -999 1.183486 7.424921 -0.93092
2009-05-04 14:36:34 51°14.519 2°54.445 -999 1.183486 7.425053 -0.965744
2009-05-04 14:36:40 51°14.516 2°54.474 -999 1.183383 7.424487 -0.965744
2009-05-04 14:36:45 51°14.513 2°54.498 -999 1.183383 7.424487 -0.93092
2009-05-04 14:36:49 51°14.511 2°54.517 -999 1.183383 7.424355 -0.965744
2009-05-04 14:36:54 51°14.507 2°54.541 -999 1.183383 7.424355 -0.965744
2009-05-04 14:36:59 51°14.503 2°54.564 -999 1.183383 7.424355 -0.965744
2009-05-04 14:37:05 51°14.497 2°54.592 -999 1.183383 7.424619 -0.965744
2009-05-04 14:37:09 51°14.495 2°54.611 -999 1.183383 7.424487 -0.965744
2009-05-04 14:37:14 51°14.491 2°54.634 -999 1.183383 7.424487 -0.965744
2009-05-04 14:37:19 51°14.487 2°54.657 -999 1.183383 7.424355 -0.965744
2009-05-04 14:37:25 51°14.481 2°54.685 -999 1.183383 7.424355 -0.965744
2009-05-04 14:37:30 51°14.478 2°54.708 -999 1.183383 7.424487 -0.965744
2009-05-04 14:37:34 51°14.474 2°54.727 -999 1.183279 7.423656 -0.965744
2009-05-04 14:37:39 51°14.469 2°54.75 -999 1.183383 7.424355 -0.965744
2009-05-04 14:37:44 51°14.464 2°54.772 -999 1.183383 7.424355 -0.965744
2009-05-04 14:37:50 51°14.456 2°54.799 -999 1.183383 7.424355 -0.965744
2009-05-04 14:37:54 51°14.451 2°54.816 -999 1.183383 7.424355 -0.965744
2009-05-04 14:38:00 51°14.443 2°54.842 -999 1.183383 7.424487 -0.965744
2009-05-04 14:38:04 51°14.438 2°54.859 -999 1.183279 7.42392 -0.965744
2009-05-04 14:38:10 51°14.431 2°54.886 -999 1.183279 7.42392 -0.965744
2009-05-04 14:38:14 51°14.426 2°54.903 -999 1.183383 7.424487 -0.965744
2009-05-04 14:38:20 51°14.419 2°54.93 -999 1.183279 7.423656 -0.965744
2009-05-04 14:38:24 51°14.413 2°54.947 -999 1.183279 7.423656 -0.965744
2009-05-04 14:38:29 51°14.407 2°54.97 -999 1.183279 7.423788 -0.965744
2009-05-04 14:38:34 51°14.401 2°54.993 -999 1.183279 7.423656 -0.965744
2009-05-04 14:38:40 51°14.392 2°55.019 -999 1.183279 7.42392 -0.965744
2009-05-04 14:38:44 51°14.388 2°55.038 -999 1.183279 7.423656 -0.965744
2009-05-04 14:38:49 51°14.38 2°55.059 -999 1.183279 7.424053 -0.965744
2009-05-04 14:38:54 51°14.372 2°55.081 -999 1.183279 7.424053 -0.965744
2009-05-04 14:38:59 51°14.363 2°55.103 -999 1.183279 7.424053 -0.965744
2009-05-04 14:39:05 51°14.352 2°55.126 -999 1.183279 7.424053 -0.965744
2009-05-04 14:39:09 51°14.345 2°55.142 -999 1.18328 7.424185 -0.965744
2009-05-04 14:39:14 51°14.335 2°55.161 -999 1.18328 7.424185 -0.965744
2009-05-04 14:39:19 51°14.325 2°55.179 -999 1.183279 7.42392 -0.965744
2009-05-04 14:39:25 51°14.313 2°55.2 -999 1.183279 7.42392 -0.965744
2009-05-04 14:39:30 51°14.304 2°55.216 -999 1.183279 7.424053 -0.965744
2009-05-04 14:39:34 51°14.295 2°55.228 -999 1.183279 7.424053 -0.965744
2009-05-04 14:39:40 51°14.283 2°55.246 -999 1.183279 7.424053 -0.965744
2009-05-04 14:39:45 51°14.273 2°55.26 -999 1.18328 7.424317 -0.965744
2009-05-04 14:39:49 51°14.265 2°55.271 -999 1.183176 7.423618 -0.965744
2009-05-04 14:39:54 51°14.254 2°55.285 -999 1.183176 7.423618 -0.965744
2009-05-04 14:40:00 51°14.242 2°55.301 -999 1.18328 7.424317 -0.965744
2009-05-04 14:40:04 51°14.234 2°55.31 -999 1.183176 7.42375 -0.965744
2009-05-04 14:40:10 51°14.222 2°55.324 -999 1.183176 7.423883 -0.965744
2009-05-04 14:40:14 51°14.215 2°55.333 -999 1.183176 7.42375 -0.965744
2009-05-04 14:40:20 51°14.203 2°55.346 -999 1.183176 7.423883 -0.965744
2009-05-04 14:40:25 51°14.193 2°55.356 -999 1.183176 7.423883 -0.965744
2009-05-04 14:40:30 51°14.184 2°55.366 -999 1.183176 7.42375 -0.965744
2009-05-04 14:40:34 51°14.177 2°55.373 -999 1.183176 7.42375 -0.965744
2009-05-04 14:40:40 51°14.166 2°55.384 -999 1.183176 7.423883 -0.965744
2009-05-04 14:40:45 51°14.157 2°55.393 -999 1.183176 7.424015 -0.965744
2009-05-04 14:40:50 51°14.148 2°55.402 -999 1.183176 7.424015 -0.965744
2009-05-04 14:40:56 51°14.138 2°55.413 -999 1.183176 7.424015 -0.965744
2009-05-04 14:41:01 51°14.129 2°55.421 -999 1.183176 7.424015 -1.000568
2009-05-04 14:41:06 51°14.121 2°55.429 -999 1.183176 7.424015 -1.000568
2009-05-04 14:41:11 51°14.112 2°55.437 -999 1.183176 7.424147 -0.965744
2009-05-04 14:41:16 51°14.103 2°55.444 -999 1.183176 7.424279 -1.000568
2009-05-04 14:41:21 51°14.094 2°55.452 -999 1.183176 7.424279 -1.000568
2009-05-04 14:41:26 51°14.085 2°55.458 -999 1.183176 7.424279 -1.000568
2009-05-04 14:41:31 51°14.076 2°55.465 -999 1.183176 7.424279 -1.000568
2009-05-04 14:41:36 51°14.067 2°55.472 -999 1.183073 7.42358 -1.000568
2009-05-04 14:41:41 51°14.059 2°55.478 -999 1.183073 7.42358 -1.000568